createdAt,value
2022-12-01T00:00:55.107Z,3.39
2022-12-01T00:03:42.048Z,3.38
2022-12-01T00:06:37.542Z,3.32
2022-12-01T00:09:23.205Z,3.36
2022-12-01T00:12:09.962Z,3.35
2022-12-01T00:14:56.795Z,3.33
2022-12-01T00:17:43.633Z,3.29
2022-12-01T00:20:31.110Z,3.30
2022-12-01T00:23:17.897Z,3.29
2022-12-01T00:26:04.630Z,3.27
2022-12-01T00:28:51.951Z,3.26
2022-12-01T00:31:39.152Z,3.25
2022-12-01T00:34:26.337Z,3.23
2022-12-01T00:37:13.117Z,3.22
2022-12-01T00:39:59.893Z,3.19
2022-12-01T00:42:47.550Z,2.93
2022-12-01T00:45:34.414Z,3.13
2022-12-01T00:48:21.216Z,3.15
2022-12-01T00:51:10.964Z,3.13
2022-12-01T00:53:57.711Z,3.12
2022-12-01T00:56:44.526Z,3.11
2022-12-01T00:59:31.476Z,3.11
2022-12-01T01:02:18.282Z,3.09
2022-12-01T01:05:05.070Z,3.08
2022-12-01T01:07:51.953Z,2.94
2022-12-01T01:10:38.828Z,3.06
2022-12-01T01:13:26.307Z,3.04
2022-12-01T01:16:25.138Z,3.02
2022-12-01T01:19:12.509Z,3.03
2022-12-01T01:21:59.613Z,3.03
2022-12-01T01:24:46.353Z,3.02
2022-12-01T01:27:33.089Z,3.01
2022-12-01T01:30:19.840Z,2.81
2022-12-01T01:33:06.617Z,2.97
2022-12-01T01:35:53.408Z,2.98
2022-12-01T01:38:40.150Z,2.77
2022-12-01T01:41:27.745Z,2.97
2022-12-01T01:44:17.726Z,2.96
2022-12-01T01:47:05.040Z,2.95
2022-12-01T01:49:51.789Z,2.94
2022-12-01T01:52:38.803Z,2.93
2022-12-01T01:55:26.257Z,2.92
2022-12-01T01:58:13.149Z,2.87
2022-12-01T02:01:03.706Z,2.87
2022-12-01T02:03:51.519Z,2.54
2022-12-01T02:06:38.388Z,2.90
2022-12-01T02:09:25.142Z,2.88
2022-12-01T02:12:17.714Z,2.88
2022-12-01T02:15:53.768Z,2.85
2022-12-01T02:19:01.209Z,2.85
2022-12-01T02:21:52.681Z,2.84
2022-12-01T02:25:06.841Z,2.82
2022-12-01T02:28:32.689Z,2.82
2022-12-01T02:31:28.692Z,2.81
2022-12-01T02:34:29.505Z,2.78
2022-12-01T02:37:28.235Z,2.79
2022-12-01T02:40:26.032Z,2.70
2022-12-01T02:43:19.235Z,2.78
2022-12-01T02:46:27.406Z,2.76
2022-12-01T02:49:18.630Z,2.54
2022-12-01T02:52:05.765Z,2.72
2022-12-01T02:54:54.182Z,2.70
2022-12-01T02:57:41.162Z,2.69
2022-12-01T03:00:28.464Z,2.69
2022-12-01T03:03:36.642Z,2.71
2022-12-01T03:06:37.705Z,2.71
2022-12-01T03:09:30.349Z,2.72
2022-12-01T03:12:27.983Z,2.51
2022-12-01T03:15:29.650Z,2.72
2022-12-01T03:18:34.985Z,2.73
2022-12-01T03:21:29.886Z,2.74
2022-12-01T03:24:21.981Z,2.45
2022-12-01T03:27:14.585Z,2.75
2022-12-01T03:30:05.577Z,2.74
2022-12-01T03:33:17.124Z,2.75
2022-12-01T03:36:12.069Z,2.75
2022-12-01T03:39:01.825Z,2.76
2022-12-01T03:41:56.595Z,2.75
2022-12-01T03:44:48.913Z,2.65
2022-12-01T03:47:42.100Z,2.76
2022-12-01T03:50:32.019Z,2.21
2022-12-01T03:53:27.844Z,2.75
2022-12-01T03:56:22.666Z,2.69
2022-12-01T03:59:13.160Z,2.76
2022-12-01T04:02:00.088Z,2.76
2022-12-01T04:04:46.953Z,2.77
2022-12-01T04:07:33.801Z,2.76
2022-12-01T04:10:20.593Z,2.68
2022-12-01T04:13:03.605Z,2.76
2022-12-01T04:15:50.415Z,2.75
2022-12-01T04:18:37.869Z,2.73
2022-12-01T04:21:24.849Z,2.73
2022-12-01T04:24:20.620Z,2.74
2022-12-01T04:27:07.401Z,2.76
2022-12-01T04:29:54.193Z,2.68
2022-12-01T04:32:41.030Z,2.72
2022-12-01T04:35:29.949Z,2.65
2022-12-01T04:38:16.689Z,2.71
2022-12-01T04:41:03.502Z,2.72
2022-12-01T04:43:50.244Z,2.73
2022-12-01T04:46:37.049Z,2.65
2022-12-01T04:49:25.231Z,2.45
2022-12-01T04:52:12.071Z,2.42
2022-12-01T04:54:58.900Z,2.76
2022-12-01T04:57:45.696Z,2.77
2022-12-01T05:00:33.202Z,2.78
2022-12-01T05:03:20.330Z,2.79
2022-12-01T05:06:07.107Z,2.79
2022-12-01T05:08:53.868Z,2.79
2022-12-01T05:11:40.707Z,2.81
2022-12-01T05:14:27.473Z,2.81
2022-12-01T05:17:14.197Z,2.62
2022-12-01T05:19:59.608Z,2.82
2022-12-01T05:23:04.863Z,2.81
2022-12-01T05:25:52.790Z,2.67
2022-12-01T05:28:40.217Z,2.40
2022-12-01T05:31:27.053Z,2.81
2022-12-01T05:34:13.852Z,2.82
2022-12-01T05:37:00.705Z,2.84
2022-12-01T05:39:47.866Z,2.83
2022-12-01T05:42:34.922Z,2.84
2022-12-01T05:45:21.661Z,2.84
2022-12-01T05:48:08.384Z,2.81
2022-12-01T05:50:59.106Z,2.48
2022-12-01T05:53:47.009Z,2.85
2022-12-01T05:56:33.830Z,2.57
2022-12-01T05:59:20.665Z,2.85
2022-12-01T06:02:07.462Z,2.86
2022-12-01T06:04:54.236Z,2.70
2022-12-01T06:07:41.228Z,2.86
2022-12-01T06:10:29.063Z,2.86
2022-12-01T06:13:15.867Z,2.83
2022-12-01T06:16:02.690Z,2.83
2022-12-01T06:18:55.011Z,2.86
2022-12-01T06:21:41.930Z,2.86
2022-12-01T06:24:30.084Z,2.34
2022-12-01T06:27:16.814Z,2.85
2022-12-01T06:30:03.600Z,2.85
2022-12-01T06:32:50.952Z,2.69
2022-12-01T06:35:37.842Z,2.83
2022-12-01T06:38:25.071Z,2.79
2022-12-01T06:41:11.838Z,2.79
2022-12-01T06:43:58.666Z,2.39
2022-12-01T06:46:45.409Z,2.80
2022-12-01T06:49:33.110Z,2.81
2022-12-01T06:52:19.859Z,2.82
2022-12-01T06:55:06.611Z,2.73
2022-12-01T06:57:53.564Z,2.82
2022-12-01T07:00:40.702Z,2.66
2022-12-01T07:03:28.508Z,2.83
2022-12-01T07:06:17.111Z,2.85
2022-12-01T07:09:04.232Z,2.84
2022-12-01T07:11:50.973Z,2.66
2022-12-01T07:14:44.703Z,2.60
2022-12-01T07:17:31.487Z,2.86
2022-12-01T07:20:18.414Z,2.82
2022-12-01T07:23:05.177Z,2.86
2022-12-01T07:25:51.910Z,2.86
2022-12-01T07:28:38.731Z,2.86
2022-12-01T07:31:28.900Z,2.86
2022-12-01T07:34:15.851Z,2.85
2022-12-01T07:37:02.625Z,2.85
2022-12-01T07:39:49.558Z,2.86
2022-12-01T08:15:00.630Z,2.77
2022-12-01T08:17:27.434Z,2.78
2022-12-01T08:20:14.228Z,2.78
2022-12-01T08:23:00.991Z,2.79
2022-12-01T08:25:49.305Z,2.80
2022-12-01T08:28:36.381Z,2.81
2022-12-01T08:31:31.006Z,2.81
2022-12-01T08:34:18.363Z,2.83
2022-12-01T08:36:45.243Z,2.66
2022-12-01T08:39:32.093Z,2.81
2022-12-01T08:42:18.854Z,2.83
2022-12-01T08:45:05.674Z,2.84
2022-12-01T08:47:52.488Z,2.85
2022-12-01T08:50:39.259Z,2.81
2022-12-01T08:53:26.008Z,2.86
2022-12-01T08:56:12.741Z,2.85
2022-12-01T08:58:59.601Z,2.80
2022-12-01T09:01:47.222Z,2.87
2022-12-01T09:04:34.087Z,2.81
2022-12-01T09:07:26.154Z,2.87
2022-12-01T09:10:13.322Z,2.89
2022-12-01T09:13:00.109Z,2.83
2022-12-01T09:15:46.892Z,2.88
2022-12-01T09:18:33.741Z,2.88
2022-12-01T09:21:01.264Z,2.88
2022-12-01T09:23:48.105Z,2.86
2022-12-01T09:26:18.662Z,2.89
2022-12-01T09:28:47.370Z,2.88
2022-12-01T09:31:15.424Z,2.83
2022-12-01T09:33:42.791Z,2.85
2022-12-01T09:36:10.738Z,2.86
2022-12-01T09:38:38.647Z,2.85
2022-12-01T09:41:29.074Z,2.75
2022-12-01T09:44:34.075Z,2.83
2022-12-01T09:47:28.516Z,2.79
2022-12-01T09:50:24.673Z,2.80
2022-12-01T09:53:16.559Z,2.80
2022-12-01T09:56:10.042Z,2.77
2022-12-01T09:58:59.702Z,2.66
2022-12-01T10:02:01.829Z,2.19
2022-12-01T10:04:57.151Z,2.74
2022-12-01T10:08:16.272Z,2.72
2022-12-01T10:11:06.953Z,2.71
2022-12-01T10:13:53.990Z,2.68
2022-12-01T10:16:50.746Z,2.34
2022-12-01T10:19:55.003Z,2.67
2022-12-01T10:23:06.153Z,2.66
2022-12-01T10:26:17.255Z,2.66
2022-12-01T10:29:17.711Z,2.64
2022-12-01T10:32:15.743Z,2.63
2022-12-01T10:35:03.550Z,2.34
2022-12-01T10:37:51.410Z,2.62
2022-12-01T10:40:38.381Z,2.62
2022-12-01T10:43:25.127Z,2.61
2022-12-01T10:46:13.529Z,2.59
2022-12-01T10:49:09.675Z,2.58
2022-12-01T10:52:17.474Z,2.57
2022-12-01T10:54:44.306Z,2.56
2022-12-01T10:57:17.586Z,2.57
2022-12-01T10:59:52.011Z,2.50
2022-12-01T11:02:45.812Z,2.55
2022-12-01T11:05:27.921Z,2.51
2022-12-01T11:07:55.254Z,2.54
2022-12-01T11:10:49.105Z,2.53
2022-12-01T11:13:42.879Z,2.53
2022-12-01T11:17:08.750Z,2.53
2022-12-01T11:19:55.558Z,2.50
2022-12-01T11:22:45.227Z,2.51
2022-12-01T11:25:40.549Z,2.32
2022-12-01T11:28:39.258Z,2.44
2022-12-01T11:31:29.436Z,2.50
2022-12-01T11:34:16.707Z,2.48
2022-12-01T11:37:07.170Z,2.48
2022-12-01T11:40:01.065Z,2.47
2022-12-01T11:42:51.224Z,2.45
2022-12-01T11:45:41.154Z,2.45
2022-12-01T11:48:44.834Z,2.43
2022-12-01T11:51:47.345Z,2.43
2022-12-01T11:54:41.563Z,2.41
2022-12-01T11:57:34.647Z,2.41
2022-12-01T12:00:38.441Z,1.95
2022-12-01T12:03:40.283Z,2.39
2022-12-01T12:06:40.304Z,2.37
2022-12-01T12:09:27.532Z,2.37
2022-12-01T12:12:32.574Z,2.36
2022-12-01T12:15:34.243Z,2.35
2022-12-01T12:18:27.598Z,2.34
2022-12-01T12:21:45.343Z,2.32
2022-12-01T12:24:59.354Z,2.32
2022-12-01T12:28:02.096Z,2.30
2022-12-01T12:30:51.115Z,2.30
2022-12-01T12:33:51.499Z,2.28
2022-12-01T12:37:23.009Z,2.27
2022-12-01T12:40:16.225Z,2.26
2022-12-01T12:43:13.309Z,2.24
2022-12-01T12:46:21.901Z,2.23
2022-12-01T12:49:53.393Z,2.21
2022-12-01T12:52:45.802Z,1.94
2022-12-01T12:55:52.804Z,2.18
2022-12-01T12:58:45.295Z,2.16
2022-12-01T13:01:43.234Z,2.14
2022-12-01T13:04:41.195Z,2.12
2022-12-01T13:07:55.876Z,2.10
2022-12-01T13:10:59.526Z,2.08
2022-12-01T13:14:16.257Z,2.05
2022-12-01T13:17:06.549Z,2.03
2022-12-01T13:19:59.168Z,1.90
2022-12-01T13:22:52.792Z,2.00
2022-12-01T13:25:48.119Z,1.99
2022-12-01T13:28:43.285Z,1.98
2022-12-01T13:31:34.104Z,1.66
2022-12-01T13:34:25.797Z,1.48
2022-12-01T13:37:15.063Z,1.92
2022-12-01T13:40:02.020Z,1.91
2022-12-01T13:42:48.863Z,1.89
2022-12-01T13:45:39.298Z,1.82
2022-12-01T13:48:25.321Z,1.86
2022-12-01T13:51:02.540Z,1.76
2022-12-01T13:53:37.691Z,1.82
2022-12-01T13:56:06.094Z,1.82
2022-12-01T13:58:33.078Z,1.80
2022-12-01T14:01:22.176Z,1.78
2022-12-01T14:04:31.420Z,1.77
2022-12-01T14:07:54.156Z,1.75
2022-12-01T14:11:06.867Z,1.74
2022-12-01T14:14:09.178Z,1.72
2022-12-01T14:17:17.752Z,1.71
2022-12-01T14:20:12.667Z,1.62
2022-12-01T14:23:02.373Z,1.69
2022-12-01T14:25:50.848Z,1.67
2022-12-01T14:28:57.564Z,1.55
2022-12-01T14:31:54.546Z,1.59
2022-12-01T14:34:44.964Z,1.63
2022-12-01T14:37:34.556Z,1.59
2022-12-01T14:40:37.772Z,1.66
2022-12-01T14:43:23.581Z,1.67
2022-12-01T14:46:26.887Z,1.62
2022-12-01T14:49:15.349Z,1.65
2022-12-01T14:52:06.034Z,1.64
2022-12-01T14:54:44.780Z,0.74
2022-12-01T14:57:33.930Z,1.62
2022-12-01T15:00:26.006Z,1.60
2022-12-01T15:03:34.049Z,1.60
2022-12-01T15:06:23.651Z,1.59
2022-12-01T15:09:35.628Z,1.58
2022-12-01T15:12:25.794Z,1.58
2022-12-01T15:15:12.665Z,1.50
2022-12-01T15:17:59.404Z,1.56
2022-12-01T15:20:57.110Z,1.55
2022-12-01T15:23:43.892Z,1.55
2022-12-01T15:26:39.658Z,1.54
2022-12-01T15:29:41.907Z,1.53
2022-12-01T15:32:34.277Z,1.53
2022-12-01T15:35:21.421Z,1.51
2022-12-01T15:38:09.195Z,1.50
2022-12-01T15:44:03.520Z,1.35
2022-12-01T15:46:52.857Z,1.48
2022-12-01T15:49:50.965Z,1.47
2022-12-01T15:52:37.895Z,1.46
2022-12-01T15:55:26.221Z,1.44
2022-12-01T15:58:13.378Z,1.39
2022-12-01T16:01:00.259Z,1.44
2022-12-01T16:03:47.591Z,1.42
2022-12-01T16:06:34.451Z,1.35
2022-12-01T16:09:23.806Z,1.42
2022-12-01T16:12:39.535Z,1.42
2022-12-01T16:15:34.395Z,1.40
2022-12-01T16:18:40.495Z,1.31
2022-12-01T16:21:27.321Z,1.38
2022-12-01T16:24:26.729Z,1.37
2022-12-01T16:27:20.157Z,1.40
2022-12-01T16:30:26.158Z,1.40
2022-12-01T16:33:21.712Z,1.40
2022-12-01T16:36:09.916Z,1.41
2022-12-01T16:38:56.662Z,1.40
2022-12-01T16:41:51.484Z,1.40
2022-12-01T16:44:38.315Z,1.40
2022-12-01T16:47:33.066Z,1.40
2022-12-01T16:50:19.875Z,1.36
2022-12-01T16:53:07.234Z,1.40
2022-12-01T16:55:59.088Z,1.39
2022-12-01T16:58:45.875Z,1.35
2022-12-01T17:01:32.780Z,1.37
2022-12-01T17:04:19.595Z,1.38
2022-12-01T17:07:06.456Z,1.26
2022-12-01T17:09:53.292Z,0.69
2022-12-01T17:12:40.055Z,1.36
2022-12-01T17:15:27.270Z,1.34
2022-12-01T17:18:14.023Z,1.20
2022-12-01T17:21:01.185Z,1.31
2022-12-01T17:23:48.478Z,1.29
2022-12-01T17:26:37.794Z,1.16
2022-12-01T17:29:24.890Z,1.27
2022-12-01T17:32:12.111Z,1.24
2022-12-01T17:34:59.517Z,1.24
2022-12-01T17:37:46.315Z,1.21
2022-12-01T17:40:36.505Z,0.52
2022-12-01T17:43:23.408Z,0.79
2022-12-01T17:46:11.707Z,1.12
2022-12-01T17:49:01.010Z,1.11
2022-12-01T17:51:47.842Z,1.09
2022-12-01T17:54:34.735Z,1.08
2022-12-01T17:57:21.537Z,0.96
2022-12-01T18:00:08.399Z,1.01
2022-12-01T18:02:58.277Z,1.03
2022-12-01T18:05:45.150Z,1.01
2022-12-01T18:08:31.897Z,1.01
2022-12-01T18:11:24.522Z,1.01
2022-12-01T18:14:12.707Z,1.00
2022-12-01T18:16:59.489Z,0.99
2022-12-01T18:19:46.390Z,0.99
2022-12-01T18:22:33.130Z,0.98
2022-12-01T18:25:19.912Z,0.98
2022-12-01T18:28:06.690Z,0.98
2022-12-01T18:30:54.282Z,0.54
2022-12-01T18:33:41.045Z,0.98
2022-12-01T18:36:36.896Z,0.98
2022-12-01T18:39:25.968Z,0.99
2022-12-01T18:42:12.873Z,0.99
2022-12-01T18:44:59.651Z,1.00
2022-12-01T18:47:48.116Z,0.90
2022-12-01T18:50:34.989Z,1.01
2022-12-01T18:53:21.722Z,1.02
2022-12-01T18:55:48.561Z,1.02
2022-12-01T18:58:16.068Z,1.03
2022-12-01T19:00:43.057Z,1.04
2022-12-01T19:03:30.177Z,1.04
2022-12-01T19:06:17.044Z,0.69
2022-12-01T19:09:06.110Z,1.05
2022-12-01T19:11:53.179Z,1.05
2022-12-01T19:14:39.922Z,0.82
2022-12-01T19:17:26.769Z,1.03
2022-12-01T19:20:13.552Z,1.08
2022-12-01T19:23:00.337Z,1.07
2022-12-01T19:25:47.110Z,1.07
2022-12-01T19:28:33.909Z,0.78
2022-12-01T19:31:25.495Z,1.08
2022-12-01T19:34:13.795Z,1.08
2022-12-01T19:37:00.599Z,1.09
2022-12-01T19:39:47.385Z,1.02
2022-12-01T19:42:34.151Z,1.10
2022-12-01T19:45:20.927Z,0.88
2022-12-01T19:48:08.402Z,0.60
2022-12-01T19:50:56.371Z,1.09
2022-12-01T19:53:43.118Z,1.09
2022-12-01T19:56:29.904Z,0.98
2022-12-01T19:59:18.764Z,1.10
2022-12-01T20:02:05.755Z,0.88
2022-12-01T20:04:52.761Z,1.09
2022-12-01T20:07:39.724Z,1.09
2022-12-01T20:10:26.773Z,1.08
2022-12-01T20:13:13.534Z,1.10
2022-12-01T20:16:00.392Z,1.04
2022-12-01T20:18:48.121Z,0.98
2022-12-01T20:21:39.434Z,1.04
2022-12-01T20:24:27.761Z,0.78
2022-12-01T20:27:14.914Z,1.10
2022-12-01T20:30:01.684Z,1.10
2022-12-01T20:32:49.639Z,0.99
2022-12-01T20:35:36.570Z,1.11
2022-12-01T20:38:27.443Z,1.05
2022-12-01T20:41:14.585Z,1.10
2022-12-01T20:44:06.925Z,0.85
2022-12-01T20:46:54.807Z,1.11
2022-12-01T20:49:41.810Z,1.04
2022-12-01T20:52:28.577Z,1.13
2022-12-01T20:55:15.324Z,1.13
2022-12-01T20:58:02.081Z,1.14
2022-12-01T21:00:50.292Z,1.15
2022-12-01T21:03:56.986Z,1.15
2022-12-01T21:06:43.833Z,1.08
2022-12-01T21:09:30.735Z,1.15
2022-12-01T21:12:17.727Z,1.10
2022-12-01T21:15:04.421Z,1.17
2022-12-01T21:17:56.758Z,1.17
2022-12-01T21:20:56.889Z,1.16
2022-12-01T21:23:47.000Z,1.15
2022-12-01T21:26:36.806Z,1.20
2022-12-01T21:29:39.581Z,1.19
2022-12-01T21:32:46.113Z,1.12
2022-12-01T21:35:42.057Z,1.20
2022-12-01T21:38:32.828Z,1.21
2022-12-01T21:41:19.595Z,1.21
2022-12-01T21:44:06.437Z,1.21
2022-12-01T21:46:53.172Z,1.17
2022-12-01T21:49:42.169Z,1.20
2022-12-01T21:52:44.310Z,1.24
2022-12-01T21:55:34.173Z,1.25
2022-12-01T21:58:20.934Z,1.26
2022-12-01T22:01:08.030Z,0.84
2022-12-01T22:04:03.226Z,1.27
2022-12-01T22:06:39.894Z,1.28
2022-12-01T22:09:27.962Z,1.29
2022-12-01T22:11:57.507Z,1.30
2022-12-01T22:14:33.778Z,1.12
2022-12-01T22:17:06.423Z,1.32
2022-12-01T22:19:42.488Z,1.33
2022-12-01T22:22:29.292Z,1.34
2022-12-01T22:25:41.470Z,1.34
2022-12-01T22:28:34.462Z,1.20
2022-12-01T22:31:22.232Z,1.36
2022-12-01T22:34:19.406Z,1.37
2022-12-01T22:37:06.149Z,1.38
2022-12-01T22:39:55.949Z,1.39
2022-12-01T22:42:53.957Z,1.40
2022-12-01T22:45:46.102Z,1.40
2022-12-01T22:48:48.252Z,1.41
2022-12-01T22:51:43.949Z,1.42
2022-12-01T22:54:36.565Z,1.42
2022-12-01T22:57:23.274Z,1.43
2022-12-01T23:00:10.463Z,1.41
2022-12-01T23:02:57.334Z,1.44
2022-12-01T23:05:47.452Z,1.43
2022-12-01T23:08:42.270Z,1.43
2022-12-01T23:11:31.297Z,1.44
2022-12-01T23:14:18.037Z,1.46
2022-12-01T23:17:04.919Z,1.40
2022-12-01T23:19:53.014Z,1.40
2022-12-01T23:22:40.341Z,1.47
2022-12-01T23:25:39.201Z,1.38
2022-12-01T23:28:28.272Z,1.48
2022-12-01T23:31:17.374Z,1.42
2022-12-01T23:34:04.137Z,1.48
2022-12-01T23:36:50.888Z,1.46
2022-12-01T23:39:42.347Z,1.49
2022-12-01T23:42:31.503Z,1.44
2022-12-01T23:45:18.234Z,1.49
2022-12-01T23:48:10.833Z,1.48
2022-12-01T23:50:57.925Z,1.48
2022-12-01T23:53:50.518Z,1.47
2022-12-01T23:56:41.409Z,1.48
2022-12-01T23:59:33.422Z,1.31
